sensor_id;sensor_type;location;lat;lon;timestamp;pressure;altitude;pressure_sealevel;temperature;humidity
24746;BME280;12845;52.042;6.838;2023-02-26T00:00:56;-18041.44;;;0.52;100.00
24746;BME280;12845;52.042;6.838;2023-02-26T00:03:21;-18041.31;;;0.52;100.00
24746;BME280;12845;52.042;6.838;2023-02-26T00:05:47;-18040.88;;;0.50;100.00
24746;BME280;12845;52.042;6.838;2023-02-26T00:08:12;-18041.31;;;0.52;100.00
24746;BME280;12845;52.042;6.838;2023-02-26T00:10:37;-18040.88;;;0.50;100.00
24746;BME280;12845;52.042;6.838;2023-02-26T00:13:02;-18040.75;;;0.50;100.00
24746;BME280;12845;52.042;6.838;2023-02-26T00:15:28;-18040.75;;;0.50;100.00
24746;BME280;12845;52.042;6.838;2023-02-26T00:17:58;-18039.50;;;0.45;100.00
24746;BME280;12845;52.042;6.838;2023-02-26T00:20:26;-18040.06;;;0.47;100.00
24746;BME280;12845;52.042;6.838;2023-02-26T00:22:52;-18040.06;;;0.47;100.00
24746;BME280;12845;52.042;6.838;2023-02-26T00:25:17;-18038.94;;;0.43;100.00
24746;BME280;12845;52.042;6.838;2023-02-26T00:27:43;-18038.81;;;0.42;100.00
24746;BME280;12845;52.042;6.838;2023-02-26T00:30:09;-18038.25;;;0.40;100.00
24746;BME280;12845;52.042;6.838;2023-02-26T00:32:34;-18037.28;;;0.37;100.00
24746;BME280;12845;52.042;6.838;2023-02-26T00:35:00;-18036.72;;;0.35;100.00
24746;BME280;12845;52.042;6.838;2023-02-26T00:37:26;-18036.19;;;0.33;100.00
24746;BME280;12845;52.042;6.838;2023-02-26T00:42:21;-18034.94;;;0.28;100.00
24746;BME280;12845;52.042;6.838;2023-02-26T00:44:47;-18034.66;;;0.27;100.00
24746;BME280;12845;52.042;6.838;2023-02-26T00:52:19;-18031.59;;;0.16;100.00
24746;BME280;12845;52.042;6.838;2023-02-26T00:54:48;-18029.53;;;0.08;100.00
24746;BME280;12845;52.042;6.838;2023-02-26T00:57:13;-18029.13;;;0.07;100.00
24746;BME280;12845;52.042;6.838;2023-02-26T00:59:38;-18028.97;;;0.06;100.00
24746;BME280;12845;52.042;6.838;2023-02-26T01:02:03;-18027.44;;;0.01;100.00
24746;BME280;12845;52.042;6.838;2023-02-26T01:04:29;-18025.66;;;-0.06;100.00
24746;BME280;12845;52.042;6.838;2023-02-26T01:06:55;-18024.25;;;-0.11;100.00
24746;BME280;12845;52.042;6.838;2023-02-26T01:11:50;-18023.28;;;-0.15;100.00
24746;BME280;12845;52.042;6.838;2023-02-26T01:14:16;-18021.50;;;-0.21;100.00
24746;BME280;12845;52.042;6.838;2023-02-26T01:19:17;-18019.41;;;-0.29;100.00
24746;BME280;12845;52.042;6.838;2023-02-26T01:21:45;-18018.56;;;-0.32;100.00
24746;BME280;12845;52.042;6.838;2023-02-26T01:24:14;-18017.34;;;-0.37;100.00
24746;BME280;12845;52.042;6.838;2023-02-26T01:26:40;-18017.75;;;-0.35;100.00
24746;BME280;12845;52.042;6.838;2023-02-26T01:29:06;-18017.19;;;-0.37;100.00
24746;BME280;12845;52.042;6.838;2023-02-26T01:34:02;-18015.66;;;-0.43;100.00
24746;BME280;12845;52.042;6.838;2023-02-26T01:36:30;-18014.56;;;-0.47;100.00
24746;BME280;12845;52.042;6.838;2023-02-26T01:42:42;-18013.59;;;-0.51;100.00
24746;BME280;12845;52.042;6.838;2023-02-26T01:44:39;-18013.19;;;-0.52;100.00
24746;BME280;12845;52.042;6.838;2023-02-26T01:49:50;-18011.50;;;-0.58;100.00
24746;BME280;12845;52.042;6.838;2023-02-26T01:54:55;-18010.97;;;-0.60;100.00
24746;BME280;12845;52.042;6.838;2023-02-26T01:57:21;-18010.53;;;-0.62;100.00
24746;BME280;12845;52.042;6.838;2023-02-26T01:59:47;-18010.97;;;-0.60;100.00
24746;BME280;12845;52.042;6.838;2023-02-26T02:02:15;-18007.91;;;-0.72;100.00
24746;BME280;12845;52.042;6.838;2023-02-26T02:04:42;-18007.75;;;-0.72;100.00
24746;BME280;12845;52.042;6.838;2023-02-26T02:07:08;-18006.53;;;-0.77;100.00
24746;BME280;12845;52.042;6.838;2023-02-26T02:09:33;-18005.81;;;-0.79;100.00
24746;BME280;12845;52.042;6.838;2023-02-26T02:12:04;-18005.41;;;-0.81;100.00
24746;BME280;12845;52.042;6.838;2023-02-26T02:15:15;-18003.88;;;-0.86;100.00
24746;BME280;12845;52.042;6.838;2023-02-26T02:17:30;-18003.88;;;-0.86;100.00
24746;BME280;12845;52.042;6.838;2023-02-26T02:20:12;-18002.78;;;-0.91;100.00
24746;BME280;12845;52.042;6.838;2023-02-26T02:30:55;-18000.16;;;-1.00;100.00
24746;BME280;12845;52.042;6.838;2023-02-26T02:33:21;-18000.16;;;-1.00;100.00
24746;BME280;12845;52.042;6.838;2023-02-26T02:35:51;-17999.59;;;-1.02;100.00
24746;BME280;12845;52.042;6.838;2023-02-26T02:38:20;-17999.44;;;-1.03;100.00
24746;BME280;12845;52.042;6.838;2023-02-26T02:40:48;-17998.91;;;-1.05;100.00
24746;BME280;12845;52.042;6.838;2023-02-26T02:43:16;-17999.03;;;-1.04;100.00
24746;BME280;12845;52.042;6.838;2023-02-26T02:48:23;-17998.75;;;-1.05;100.00
24746;BME280;12845;52.042;6.838;2023-02-26T02:51:12;-17997.78;;;-1.09;100.00
24746;BME280;12845;52.042;6.838;2023-02-26T02:53:39;-17996.97;;;-1.12;100.00
24746;BME280;12845;52.042;6.838;2023-02-26T02:56:11;-17995.97;;;-1.16;100.00
24746;BME280;12845;52.042;6.838;2023-02-26T02:58:39;-17995.16;;;-1.19;100.00
24746;BME280;12845;52.042;6.838;2023-02-26T03:01:06;-17995.16;;;-1.19;100.00
24746;BME280;12845;52.042;6.838;2023-02-26T03:04:15;-17994.59;;;-1.21;100.00
24746;BME280;12845;52.042;6.838;2023-02-26T03:06:22;-17993.75;;;-1.24;100.00
24746;BME280;12845;52.042;6.838;2023-02-26T03:08:48;-17993.06;;;-1.26;100.00
24746;BME280;12845;52.042;6.838;2023-02-26T03:11:14;-17993.34;;;-1.25;100.00
24746;BME280;12845;52.042;6.838;2023-02-26T03:13:39;-17992.38;;;-1.29;100.00
24746;BME280;12845;52.042;6.838;2023-02-26T03:21:12;-17991.28;;;-1.33;100.00
24746;BME280;12845;52.042;6.838;2023-02-26T03:26:23;-17991.00;;;-1.34;100.00
24746;BME280;12845;52.042;6.838;2023-02-26T03:28:54;-17991.28;;;-1.33;100.00
24746;BME280;12845;52.042;6.838;2023-02-26T03:31:35;-17989.88;;;-1.38;100.00
24746;BME280;12845;52.042;6.838;2023-02-26T03:34:17;-17989.06;;;-1.41;100.00
24746;BME280;12845;52.042;6.838;2023-02-26T03:39:45;-17988.22;;;-1.44;100.00
24746;BME280;12845;52.042;6.838;2023-02-26T03:42:18;-17988.34;;;-1.44;100.00
24746;BME280;12845;52.042;6.838;2023-02-26T03:44:48;-17987.66;;;-1.46;100.00
24746;BME280;12845;52.042;6.838;2023-02-26T03:47:17;-17987.66;;;-1.46;100.00
24746;BME280;12845;52.042;6.838;2023-02-26T03:52:07;-17985.59;;;-1.54;100.00
24746;BME280;12845;52.042;6.838;2023-02-26T03:54:54;-17985.72;;;-1.53;100.00
24746;BME280;12845;52.042;6.838;2023-02-26T03:57:18;-17986.28;;;-1.51;100.00
24746;BME280;12845;52.042;6.838;2023-02-26T03:59:43;-17986.00;;;-1.52;100.00
24746;BME280;12845;52.042;6.838;2023-02-26T04:04:36;-17985.31;;;-1.55;100.00
24746;BME280;12845;52.042;6.838;2023-02-26T04:07:06;-17985.31;;;-1.55;100.00
24746;BME280;12845;52.042;6.838;2023-02-26T04:09:32;-17983.91;;;-1.60;100.00
24746;BME280;12845;52.042;6.838;2023-02-26T04:11:57;-17983.78;;;-1.61;100.00
24746;BME280;12845;52.042;6.838;2023-02-26T04:14:22;-17982.81;;;-1.64;100.00
24746;BME280;12845;52.042;6.838;2023-02-26T04:16:47;-17983.38;;;-1.62;100.00
24746;BME280;12845;52.042;6.838;2023-02-26T04:19:13;-17983.38;;;-1.62;100.00
24746;BME280;12845;52.042;6.838;2023-02-26T04:21:38;-17982.41;;;-1.66;100.00
24746;BME280;12845;52.042;6.838;2023-02-26T04:24:04;-17982.13;;;-1.67;100.00
24746;BME280;12845;52.042;6.838;2023-02-26T04:26:29;-17981.56;;;-1.69;100.00
24746;BME280;12845;52.042;6.838;2023-02-26T04:28:54;-17981.56;;;-1.69;100.00
24746;BME280;12845;52.042;6.838;2023-02-26T04:31:19;-17981.28;;;-1.70;100.00
24746;BME280;12845;52.042;6.838;2023-02-26T04:33:45;-17980.03;;;-1.74;100.00
24746;BME280;12845;52.042;6.838;2023-02-26T04:36:10;-17980.16;;;-1.74;100.00
24746;BME280;12845;52.042;6.838;2023-02-26T04:38:35;-17978.78;;;-1.79;100.00
24746;BME280;12845;52.042;6.838;2023-02-26T04:41:00;-17979.34;;;-1.77;100.00
24746;BME280;12845;52.042;6.838;2023-02-26T04:43:26;-17977.81;;;-1.83;100.00
24746;BME280;12845;52.042;6.838;2023-02-26T04:45:51;-17977.13;;;-1.85;100.00
24746;BME280;12845;52.042;6.838;2023-02-26T04:48:17;-17976.56;;;-1.87;100.00
24746;BME280;12845;52.042;6.838;2023-02-26T04:50:42;-17975.72;;;-1.90;100.00
24746;BME280;12845;52.042;6.838;2023-02-26T04:53:08;-17975.19;;;-1.92;100.00
24746;BME280;12845;52.042;6.838;2023-02-26T04:55:34;-17974.63;;;-1.94;100.00
24746;BME280;12845;52.042;6.838;2023-02-26T04:57:59;-17973.78;;;-1.97;100.00
24746;BME280;12845;52.042;6.838;2023-02-26T05:00:24;-17973.22;;;-1.99;100.00
24746;BME280;12845;52.042;6.838;2023-02-26T05:02:50;-17972.69;;;-2.01;100.00
24746;BME280;12845;52.042;6.838;2023-02-26T05:05:16;-17972.53;;;-2.02;100.00
24746;BME280;12845;52.042;6.838;2023-02-26T05:07:41;-17972.69;;;-2.01;100.00
24746;BME280;12845;52.042;6.838;2023-02-26T05:10:07;-17971.84;;;-2.05;100.00
24746;BME280;12845;52.042;6.838;2023-02-26T05:12:32;-17971.28;;;-2.07;100.00
24746;BME280;12845;52.042;6.838;2023-02-26T05:14:57;-17970.47;;;-2.10;100.00
24746;BME280;12845;52.042;6.838;2023-02-26T05:17:23;-17969.91;;;-2.12;100.00
24746;BME280;12845;52.042;6.838;2023-02-26T05:19:48;-17970.19;;;-2.11;100.00
24746;BME280;12845;52.042;6.838;2023-02-26T05:22:13;-17969.91;;;-2.12;100.00
24746;BME280;12845;52.042;6.838;2023-02-26T05:24:38;-17970.03;;;-2.11;100.00
24746;BME280;12845;52.042;6.838;2023-02-26T05:27:04;-17969.78;;;-2.12;100.00
24746;BME280;12845;52.042;6.838;2023-02-26T05:29:29;-17969.22;;;-2.14;100.00
24746;BME280;12845;52.042;6.838;2023-02-26T05:31:54;-17969.50;;;-2.13;100.00
24746;BME280;12845;52.042;6.838;2023-02-26T05:34:19;-17969.91;;;-2.12;100.00
24746;BME280;12845;52.042;6.838;2023-02-26T05:36:45;-17968.25;;;-2.18;100.00
24746;BME280;12845;52.042;6.838;2023-02-26T05:39:10;-17969.34;;;-2.14;100.00
24746;BME280;12845;52.042;6.838;2023-02-26T05:41:35;-17968.53;;;-2.17;100.00
24746;BME280;12845;52.042;6.838;2023-02-26T05:44:00;-17967.69;;;-2.20;100.00
24746;BME280;12845;52.042;6.838;2023-02-26T05:46:26;-17965.47;;;-2.28;100.00
24746;BME280;12845;52.042;6.838;2023-02-26T05:48:51;-17964.50;;;-2.32;100.00
24746;BME280;12845;52.042;6.838;2023-02-26T05:51:17;-17964.34;;;-2.32;100.00
24746;BME280;12845;52.042;6.838;2023-02-26T05:53:42;-17964.63;;;-2.31;100.00
24746;BME280;12845;52.042;6.838;2023-02-26T05:56:07;-17963.81;;;-2.34;100.00
24746;BME280;12845;52.042;6.838;2023-02-26T05:58:32;-17964.06;;;-2.33;100.00
24746;BME280;12845;52.042;6.838;2023-02-26T06:00:58;-17963.25;;;-2.36;100.00
24746;BME280;12845;52.042;6.838;2023-02-26T06:03:23;-17963.53;;;-2.35;100.00
24746;BME280;12845;52.042;6.838;2023-02-26T06:05:49;-17963.25;;;-2.36;100.00
24746;BME280;12845;52.042;6.838;2023-02-26T06:08:14;-17962.97;;;-2.37;100.00
24746;BME280;12845;52.042;6.838;2023-02-26T06:10:41;-17962.69;;;-2.38;100.00
24746;BME280;12845;52.042;6.838;2023-02-26T06:13:06;-17963.25;;;-2.36;100.00
24746;BME280;12845;52.042;6.838;2023-02-26T06:15:31;-17962.41;;;-2.39;100.00
24746;BME280;12845;52.042;6.838;2023-02-26T06:17:57;-17961.84;;;-2.41;100.00
24746;BME280;12845;52.042;6.838;2023-02-26T06:20:22;-17962.13;;;-2.40;100.00
24746;BME280;12845;52.042;6.838;2023-02-26T06:22:47;-17962.28;;;-2.40;100.00
24746;BME280;12845;52.042;6.838;2023-02-26T06:25:12;-17962.97;;;-2.37;100.00
24746;BME280;12845;52.042;6.838;2023-02-26T06:27:38;-17962.97;;;-2.37;100.00
24746;BME280;12845;52.042;6.838;2023-02-26T06:30:03;-17963.53;;;-2.35;100.00
24746;BME280;12845;52.042;6.838;2023-02-26T06:32:29;-17963.53;;;-2.35;100.00
24746;BME280;12845;52.042;6.838;2023-02-26T06:34:54;-17963.66;;;-2.35;100.00
24746;BME280;12845;52.042;6.838;2023-02-26T06:37:20;-17962.97;;;-2.37;100.00
24746;BME280;12845;52.042;6.838;2023-02-26T06:39:45;-17961.84;;;-2.41;100.00
24746;BME280;12845;52.042;6.838;2023-02-26T06:42:10;-17961.56;;;-2.42;100.00
24746;BME280;12845;52.042;6.838;2023-02-26T06:44:35;-17962.13;;;-2.40;100.00
24746;BME280;12845;52.042;6.838;2023-02-26T06:47:00;-17962.00;;;-2.41;100.00
24746;BME280;12845;52.042;6.838;2023-02-26T06:49:26;-17962.28;;;-2.40;100.00
24746;BME280;12845;52.042;6.838;2023-02-26T06:51:51;-17963.53;;;-2.35;100.00
24746;BME280;12845;52.042;6.838;2023-02-26T06:54:16;-17963.81;;;-2.34;100.00
24746;BME280;12845;52.042;6.838;2023-02-26T06:56:41;-17964.78;;;-2.31;100.00
24746;BME280;12845;52.042;6.838;2023-02-26T06:59:07;-17965.31;;;-2.29;100.00
24746;BME280;12845;52.042;6.838;2023-02-26T07:01:32;-17965.75;;;-2.27;100.00
24746;BME280;12845;52.042;6.838;2023-02-26T07:03:57;-17966.84;;;-2.23;100.00
24746;BME280;12845;52.042;6.838;2023-02-26T07:06:23;-17967.41;;;-2.21;100.00
24746;BME280;12845;52.042;6.838;2023-02-26T07:08:49;-17969.34;;;-2.14;100.00
24746;BME280;12845;52.042;6.838;2023-02-26T07:11:14;-17970.75;;;-2.09;100.00
24746;BME280;12845;52.042;6.838;2023-02-26T07:13:39;-17972.41;;;-2.02;100.00
24746;BME280;12845;52.042;6.838;2023-02-26T07:16:05;-17972.69;;;-2.01;100.00
24746;BME280;12845;52.042;6.838;2023-02-26T07:18:34;-17973.78;;;-1.97;100.00
24746;BME280;12845;52.042;6.838;2023-02-26T07:20:59;-17974.34;;;-1.95;100.00
24746;BME280;12845;52.042;6.838;2023-02-26T07:23:24;-17975.47;;;-1.91;100.00
24746;BME280;12845;52.042;6.838;2023-02-26T07:25:50;-17978.38;;;-1.80;100.00
24746;BME280;12845;52.042;6.838;2023-02-26T07:28:15;-17980.16;;;-1.74;100.00
24746;BME280;12845;52.042;6.838;2023-02-26T07:30:41;-17981.97;;;-1.67;100.00
24746;BME280;12845;52.042;6.838;2023-02-26T07:33:07;-17982.66;;;-1.65;100.00
24746;BME280;12845;52.042;6.838;2023-02-26T07:35:32;-17984.34;;;-1.59;100.00
24746;BME280;12845;52.042;6.838;2023-02-26T07:37:57;-17986.28;;;-1.51;100.00
24746;BME280;12845;52.042;6.838;2023-02-26T07:40:22;-17987.66;;;-1.46;100.00
24746;BME280;12845;52.042;6.838;2023-02-26T07:42:47;-17989.19;;;-1.41;100.00
24746;BME280;12845;52.042;6.838;2023-02-26T07:45:13;-17991.28;;;-1.33;100.00
24746;BME280;12845;52.042;6.838;2023-02-26T07:47:38;-17993.22;;;-1.26;100.00
24746;BME280;12845;52.042;6.838;2023-02-26T07:50:03;-17995.56;;;-1.17;100.00
24746;BME280;12845;52.042;6.838;2023-02-26T07:52:29;-17996.97;;;-1.12;100.00
24746;BME280;12845;52.042;6.838;2023-02-26T07:54:54;-17998.19;;;-1.07;100.00
24746;BME280;12845;52.042;6.838;2023-02-26T07:57:19;-17999.88;;;-1.01;100.00
24746;BME280;12845;52.042;6.838;2023-02-26T07:59:45;-18001.38;;;-0.96;100.00
24746;BME280;12845;52.042;6.838;2023-02-26T08:02:12;-18002.50;;;-0.92;100.00
24746;BME280;12845;52.042;6.838;2023-02-26T08:04:37;-18004.84;;;-0.83;100.00
24746;BME280;12845;52.042;6.838;2023-02-26T08:07:03;-18005.69;;;-0.80;100.00
24746;BME280;12845;52.042;6.838;2023-02-26T08:09:28;-18007.34;;;-0.74;100.00
24746;BME280;12845;52.042;6.838;2023-02-26T08:11:54;-18008.59;;;-0.69;100.00
24746;BME280;12845;52.042;6.838;2023-02-26T08:14:20;-18010.41;;;-0.62;100.00
24746;BME280;12845;52.042;6.838;2023-02-26T08:16:45;-18012.22;;;-0.56;100.00
24746;BME280;12845;52.042;6.838;2023-02-26T08:19:10;-18013.44;;;-0.51;100.00
24746;BME280;12845;52.042;6.838;2023-02-26T08:21:35;-18014.84;;;-0.46;100.00
24746;BME280;12845;52.042;6.838;2023-02-26T08:24:01;-18016.78;;;-0.39;100.00
24746;BME280;12845;52.042;6.838;2023-02-26T08:26:26;-18017.47;;;-0.36;100.00
24746;BME280;12845;52.042;6.838;2023-02-26T08:28:51;-18019.41;;;-0.29;100.00
24746;BME280;12845;52.042;6.838;2023-02-26T08:31:17;-18021.22;;;-0.22;100.00
24746;BME280;12845;52.042;6.838;2023-02-26T08:33:42;-18022.31;;;-0.18;100.00
24746;BME280;12845;52.042;6.838;2023-02-26T08:36:08;-18023.16;;;-0.15;100.00
24746;BME280;12845;52.042;6.838;2023-02-26T08:38:34;-18025.09;;;-0.08;100.00
24746;BME280;12845;52.042;6.838;2023-02-26T08:40:59;-18026.75;;;-0.02;100.00
24746;BME280;12845;52.042;6.838;2023-02-26T08:43:24;-18028.41;;;0.04;100.00
24746;BME280;12845;52.042;6.838;2023-02-26T08:45:53;-18032.16;;;0.18;100.00
24746;BME280;12845;52.042;6.838;2023-02-26T08:48:19;-18032.72;;;0.20;100.00
24746;BME280;12845;52.042;6.838;2023-02-26T08:50:44;-18033.53;;;0.23;100.00
24746;BME280;12845;52.042;6.838;2023-02-26T08:53:09;-18035.63;;;0.31;100.00
24746;BME280;12845;52.042;6.838;2023-02-26T08:55:34;-18037.41;;;0.37;100.00
24746;BME280;12845;52.042;6.838;2023-02-26T08:58:00;-18038.66;;;0.42;100.00
24746;BME280;12845;52.042;6.838;2023-02-26T09:00:25;-18040.75;;;0.50;100.00
24746;BME280;12845;52.042;6.838;2023-02-26T09:02:50;-18043.25;;;0.59;100.00
24746;BME280;12845;52.042;6.838;2023-02-26T09:05:15;-18044.50;;;0.63;100.00
24746;BME280;12845;52.042;6.838;2023-02-26T09:07:41;-18045.47;;;0.67;100.00
24746;BME280;12845;52.042;6.838;2023-02-26T09:10:07;-18048.09;;;0.77;100.00
24746;BME280;12845;52.042;6.838;2023-02-26T09:12:32;-18051.41;;;0.89;100.00
24746;BME280;12845;52.042;6.838;2023-02-26T09:14:57;-18052.94;;;0.95;100.00
24746;BME280;12845;52.042;6.838;2023-02-26T09:17:24;-18051.97;;;0.91;100.00
24746;BME280;12845;52.042;6.838;2023-02-26T09:19:49;-18055.00;;;1.02;100.00
24746;BME280;12845;52.042;6.838;2023-02-26T09:22:14;-18058.88;;;1.17;100.00
24746;BME280;12845;52.042;6.838;2023-02-26T09:24:40;-18057.50;;;1.11;100.00
24746;BME280;12845;52.042;6.838;2023-02-26T09:27:05;-18060.69;;;1.23;100.00
24746;BME280;12845;52.042;6.838;2023-02-26T09:29:30;-18064.97;;;1.39;100.00
24746;BME280;12845;52.042;6.838;2023-02-26T09:31:55;-18066.91;;;1.46;100.00
24746;BME280;12845;52.042;6.838;2023-02-26T09:34:21;-18068.84;;;1.53;100.00
24746;BME280;12845;52.042;6.838;2023-02-26T09:36:46;-18070.25;;;1.58;100.00
24746;BME280;12845;52.042;6.838;2023-02-26T09:39:11;-18070.25;;;1.58;100.00
24746;BME280;12845;52.042;6.838;2023-02-26T09:41:38;-18072.19;;;1.66;100.00
24746;BME280;12845;52.042;6.838;2023-02-26T09:52:21;-18075.78;;;1.79;100.00
24746;BME280;12845;52.042;6.838;2023-02-26T09:54:48;-18078.41;;;1.89;100.00
24746;BME280;12845;52.042;6.838;2023-02-26T09:57:24;-18080.63;;;1.97;100.00
24746;BME280;12845;52.042;6.838;2023-02-26T10:06:19;-18096.53;;;2.56;100.00
24746;BME280;12845;52.042;6.838;2023-02-26T10:11:32;-18101.22;;;2.73;100.00
24746;BME280;12845;52.042;6.838;2023-02-26T10:14:11;-18099.16;;;2.65;100.00
24746;BME280;12845;52.042;6.838;2023-02-26T10:16:40;-18094.88;;;2.49;100.00
24746;BME280;12845;52.042;6.838;2023-02-26T10:19:10;-18093.75;;;2.45;100.00
24746;BME280;12845;52.042;6.838;2023-02-26T10:24:10;-18092.66;;;2.41;100.00
24746;BME280;12845;52.042;6.838;2023-02-26T10:26:44;-18093.63;;;2.45;100.00
24746;BME280;12845;52.042;6.838;2023-02-26T10:29:27;-18087.81;;;2.23;100.00
24746;BME280;12845;52.042;6.838;2023-02-26T10:34:57;-18084.22;;;2.10;100.00
24746;BME280;12845;52.042;6.838;2023-02-26T10:51:14;-18093.47;;;2.44;100.00
24746;BME280;12845;52.042;6.838;2023-02-26T10:53:43;-18097.50;;;2.59;100.00
24746;BME280;12845;52.042;6.838;2023-02-26T10:56:15;-18101.09;;;2.72;100.00
24746;BME280;12845;52.042;6.838;2023-02-26T10:58:42;-18105.78;;;2.90;100.00
24746;BME280;12845;52.042;6.838;2023-02-26T11:01:16;-18105.94;;;2.90;100.00
24746;BME280;12845;52.042;6.838;2023-02-26T11:03:45;-18104.69;;;2.86;99.18
24746;BME280;12845;52.042;6.838;2023-02-26T11:06:18;-18106.06;;;2.91;100.00
24746;BME280;12845;52.042;6.838;2023-02-26T11:08:48;-18111.47;;;3.11;100.00
24746;BME280;12845;52.042;6.838;2023-02-26T11:11:46;-18113.66;;;3.19;95.69
24746;BME280;12845;52.042;6.838;2023-02-26T11:14:13;-18119.75;;;3.42;93.25
24746;BME280;12845;52.042;6.838;2023-02-26T11:16:55;-18118.66;;;3.37;95.73
24746;BME280;12845;52.042;6.838;2023-02-26T11:19:32;-18122.78;;;3.53;95.62
24746;BME280;12845;52.042;6.838;2023-02-26T11:22:00;-18122.38;;;3.51;83.88
24746;BME280;12845;52.042;6.838;2023-02-26T11:24:35;-18124.44;;;3.59;88.99
24746;BME280;12845;52.042;6.838;2023-02-26T11:27:03;-18119.19;;;3.39;83.98
24746;BME280;12845;52.042;6.838;2023-02-26T11:29:36;-18119.19;;;3.39;84.42
24746;BME280;12845;52.042;6.838;2023-02-26T11:32:03;-18120.44;;;3.44;78.70
24746;BME280;12845;52.042;6.838;2023-02-26T11:34:29;-18119.06;;;3.39;82.94
24746;BME280;12845;52.042;6.838;2023-02-26T11:36:57;-18111.47;;;3.11;86.78
24746;BME280;12845;52.042;6.838;2023-02-26T11:39:25;-18110.22;;;3.06;89.23
24746;BME280;12845;52.042;6.838;2023-02-26T11:41:56;-18112.00;;;3.13;87.78
24746;BME280;12845;52.042;6.838;2023-02-26T11:44:38;-18112.69;;;3.15;86.76
24746;BME280;12845;52.042;6.838;2023-02-26T11:47:09;-18112.00;;;3.13;95.30
24746;BME280;12845;52.042;6.838;2023-02-26T11:49:41;-18116.16;;;3.28;86.57
24746;BME280;12845;52.042;6.838;2023-02-26T11:54:38;-18130.53;;;3.81;85.22
24746;BME280;12845;52.042;6.838;2023-02-26T11:57:06;-18129.56;;;3.78;82.40
24746;BME280;12845;52.042;6.838;2023-02-26T11:59:33;-18135.78;;;4.01;86.51
24746;BME280;12845;52.042;6.838;2023-02-26T12:02:11;-18143.22;;;4.28;96.54
24746;BME280;12845;52.042;6.838;2023-02-26T12:04:42;-18144.63;;;4.34;88.52
24746;BME280;12845;52.042;6.838;2023-02-26T12:07:11;-18149.03;;;4.50;100.00
24746;BME280;12845;52.042;6.838;2023-02-26T12:09:38;-18154.56;;;4.70;94.94
24746;BME280;12845;52.042;6.838;2023-02-26T12:20:26;-18163.41;;;5.03;93.45
24746;BME280;12845;52.042;6.838;2023-02-26T12:25:46;-18171.94;;;5.35;90.40
24746;BME280;12845;52.042;6.838;2023-02-26T12:36:45;-18176.38;;;5.51;81.65
24746;BME280;12845;52.042;6.838;2023-02-26T12:48:05;-18182.16;;;5.73;88.46
24746;BME280;12845;52.042;6.838;2023-02-26T13:15:13;-18196.25;;;6.25;80.65
24746;BME280;12845;52.042;6.838;2023-02-26T13:20:24;-18203.00;;;6.50;79.10
24746;BME280;12845;52.042;6.838;2023-02-26T13:22:58;-18205.75;;;6.60;89.49
24746;BME280;12845;52.042;6.838;2023-02-26T13:28:03;-18207.53;;;6.67;70.72
24746;BME280;12845;52.042;6.838;2023-02-26T13:30:34;-18209.19;;;6.73;81.79
24746;BME280;12845;52.042;6.838;2023-02-26T13:33:00;-18203.53;;;6.52;68.28
24746;BME280;12845;52.042;6.838;2023-02-26T13:35:33;-18203.97;;;6.53;69.91
24746;BME280;12845;52.042;6.838;2023-02-26T13:38:06;-18207.28;;;6.66;74.58
24746;BME280;12845;52.042;6.838;2023-02-26T13:40:46;-18214.16;;;6.91;93.71
24746;BME280;12845;52.042;6.838;2023-02-26T13:44:11;-18213.88;;;6.90;81.73
24746;BME280;12845;52.042;6.838;2023-02-26T13:46:29;-18214.84;;;6.94;87.13
24746;BME280;12845;52.042;6.838;2023-02-26T13:49:33;-18215.81;;;6.97;83.10
24746;BME280;12845;52.042;6.838;2023-02-26T13:52:04;-18215.41;;;6.96;77.09
24746;BME280;12845;52.042;6.838;2023-02-26T13:54:42;-18215.69;;;6.97;73.28
24746;BME280;12845;52.042;6.838;2023-02-26T13:57:24;-18213.34;;;6.88;73.18
24746;BME280;12845;52.042;6.838;2023-02-26T14:13:19;-18217.88;;;7.05;68.24
24746;BME280;12845;52.042;6.838;2023-02-26T14:16:25;-18216.63;;;7.00;68.95
24746;BME280;12845;52.042;6.838;2023-02-26T14:18:51;-18211.69;;;6.82;71.23
24746;BME280;12845;52.042;6.838;2023-02-26T14:21:36;-18218.84;;;7.09;80.93
24746;BME280;12845;52.042;6.838;2023-02-26T14:27:07;-18213.06;;;6.87;63.23
24746;BME280;12845;52.042;6.838;2023-02-26T14:38:24;-18226.84;;;7.38;64.23
24746;BME280;12845;52.042;6.838;2023-02-26T14:41:13;-18226.28;;;7.36;81.17
24746;BME280;12845;52.042;6.838;2023-02-26T14:43:49;-18228.06;;;7.43;65.58
24746;BME280;12845;52.042;6.838;2023-02-26T14:46:17;-18225.03;;;7.32;63.05
24746;BME280;12845;52.042;6.838;2023-02-26T14:48:43;-18219.66;;;7.12;65.36
24746;BME280;12845;52.042;6.838;2023-02-26T15:02:13;-18221.88;;;7.20;65.30
24746;BME280;12845;52.042;6.838;2023-02-26T15:07:23;-18213.75;;;6.90;64.12
24746;BME280;12845;52.042;6.838;2023-02-26T15:10:07;-18222.28;;;7.21;70.58
24746;BME280;12845;52.042;6.838;2023-02-26T15:12:49;-18228.75;;;7.45;70.19
24746;BME280;12845;52.042;6.838;2023-02-26T15:15:21;-18226.28;;;7.36;78.85
24746;BME280;12845;52.042;6.838;2023-02-26T15:26:02;-18215.41;;;6.96;72.77
24746;BME280;12845;52.042;6.838;2023-02-26T15:28:32;-18221.59;;;7.19;74.46
24746;BME280;12845;52.042;6.838;2023-02-26T15:31:01;-18223.66;;;7.27;73.31
24746;BME280;12845;52.042;6.838;2023-02-26T15:33:28;-18218.97;;;7.09;69.95
24746;BME280;12845;52.042;6.838;2023-02-26T15:35:55;-18212.38;;;6.85;68.64
24746;BME280;12845;52.042;6.838;2023-02-26T15:38:22;-18210.56;;;6.78;68.64
24746;BME280;12845;52.042;6.838;2023-02-26T15:40:50;-18213.47;;;6.89;78.46
24746;BME280;12845;52.042;6.838;2023-02-26T15:43:23;-18218.56;;;7.08;74.55
24746;BME280;12845;52.042;6.838;2023-02-26T15:45:51;-18214.56;;;6.93;74.42
24746;BME280;12845;52.042;6.838;2023-02-26T15:48:25;-18208.50;;;6.70;75.18
24746;BME280;12845;52.042;6.838;2023-02-26T15:50:54;-18204.78;;;6.57;72.10
24746;BME280;12845;52.042;6.838;2023-02-26T15:53:36;-18206.16;;;6.62;78.28
24746;BME280;12845;52.042;6.838;2023-02-26T15:56:08;-18208.09;;;6.69;82.92
24746;BME280;12845;52.042;6.838;2023-02-26T15:58:41;-18208.66;;;6.71;80.24
24746;BME280;12845;52.042;6.838;2023-02-26T16:01:14;-18211.13;;;6.80;85.05
24746;BME280;12845;52.042;6.838;2023-02-26T16:03:41;-18206.44;;;6.63;78.45
24746;BME280;12845;52.042;6.838;2023-02-26T16:06:45;-18203.81;;;6.53;78.14
24746;BME280;12845;52.042;6.838;2023-02-26T16:09:05;-18200.66;;;6.41;78.96